Latest Weather Observations for Paraburdoo

IDW60801

Issued at 9:53 pm WST Sunday 20 May 2018 (issued every 10 minutes, with the page automatically refreshed every 10 minutes)

About weather observations | Map of weather stations | Latest weather observations for WA | Other Formats
Station Details ID: 007185 Name: PARABURDOO AERO Lat: -23.17 Lon: 117.75 Height: 423.7 m
Data from the previous 72 hours. | See also: Recent months at Paraburdoo
Date/Time
WST
Temp
°C
App
Temp
°C
Dew
Point
°C
Rel
Hum
%
Delta-T
°C
Wind Press
QNH
hPa
Press
MSL
hPa
Rain since
9am
mm
Dir  Spd
km/h
Gust
km/h
Spd
kts
Gust
kts
20/09:30pm 17.5 11.3 -9.4 15 9.8 ESE 17 20 9 11 1021.9 1020.1 0.0
20/09:00pm 18.0 12.1 -9.9 14 10.1 ESE 15 19 8 10 1021.9 1020.1 0.0
20/08:30pm 19.3 13.4 -9.8 13 10.7 ESE 15 19 8 10 1021.7 1019.9 0.0
20/08:00pm 20.3 14.4 -10.0 12 11.2 ESE 15 17 8 9 1021.3 1019.4 0.0
20/07:30pm 21.1 15.2 -10.5 11 11.7 ESE 15 17 8 9 1020.7 1018.9 0.0
20/07:00pm 21.8 15.8 -11.1 10 12.1 ESE 15 19 8 10 1020.3 1018.5 0.0
20/06:30pm 22.7 16.4 -10.4 10 12.5 ESE 17 20 9 11 1020.0 1018.2 0.0
20/06:00pm 23.3 17.3 -11.3 9 12.9 ESE 15 20 8 11 1019.6 1017.8 0.0
20/05:30pm 24.5 17.6 -10.4 9 13.5 ESE 20 30 11 16 1019.3 1017.4 0.0
20/05:00pm 25.6 17.5 -11.1 8 14.1 ESE 26 37 14 20 1019.0 1017.1 0.0
20/04:30pm 26.2 18.4 -12.3 7 14.6 ESE 24 35 13 19 1018.7 1016.8 0.0
20/04:00pm 26.7 19.7 -11.9 7 14.8 E 20 32 11 17 1018.4 1016.6 0.0
20/03:30pm 26.7 19.9 -11.9 7 14.8 ESE 19 28 10 15 1018.3 1016.5 0.0
20/03:00pm 26.9 19.5 -11.8 7 14.9 ESE 22 32 12 17 1018.3 1016.5 0.0
20/02:30pm 26.8 18.9 -13.7 6 15.1 E 24 37 13 20 1018.6 1016.7 0.0
20/02:00pm 26.3 18.3 -10.5 8 14.4 ESE 26 39 14 21 1018.8 1016.9 0.0
20/01:30pm 26.6 19.7 -10.3 8 14.6 E 20 39 11 21 1019.1 1017.2 0.0
20/01:00pm 26.0 17.6 -10.8 8 14.3 ESE 28 39 15 21 1019.5 1017.7 0.0
20/12:30pm 25.9 18.2 -10.8 8 14.2 E 24 33 13 18 1020.2 1018.4 0.0
20/12:00pm 25.6 17.6 -9.6 9 13.9 E 26 41 14 22 1020.8 1019.0 0.0
20/11:30am 24.3 16.0 -9.2 10 13.2 E 28 39 15 21 1021.3 1019.4 0.0
20/11:00am 23.7 16.5 -9.7 10 12.9 E 22 32 12 17 1021.7 1019.9 0.0
20/10:30am 22.9 14.6 -9.1 11 12.4 ENE 28 43 15 23 1022.1 1020.3 0.0
20/10:00am 22.1 14.5 -9.7 11 12.1 E 24 37 13 20 1022.4 1020.6 0.0
20/09:30am 20.0 12.8 -10.2 12 11.1 E 22 32 12 17 1022.4 1020.6 0.0
20/09:00am 19.3 12.1 -9.8 13 10.7 E 22 35 12 19 1022.5 1020.7 0.0
20/08:30am 18.1 10.9 -9.8 14 10.1 E 22 32 12 17 1022.4 1020.6 0.0
20/08:00am 17.4 10.8 -9.5 15 9.7 E 19 28 10 15 1022.2 1020.4 0.0
20/07:30am 14.6 10.0 -7.4 21 8.1 E 9 13 5 7 1022.1 1020.3 0.0
20/07:00am 10.0 5.1 -7.6 28 6.0 ENE 11 13 6 7 1021.9 1020.1 0.0
20/06:30am 11.2 6.7 -7.1 27 6.5 E 9 11 5 6 1021.7 1019.9 0.0
20/06:00am 11.4 6.1 -7.4 26 6.6 E 13 15 7 8 1021.4 1019.5 0.0
20/05:30am 10.3 5.4 -7.4 28 6.2 ESE 11 13 6 7 1021.2 1019.3 0.0
20/05:00am 11.0 7.0 -7.3 27 6.4 E 6 11 3 6 1021.1 1019.2 0.0
20/04:30am 11.2 8.3 -7.6 26 6.6 CALM 0 0 0 0 1020.8 1019.0 0.0
20/04:00am 12.4 8.2 -7.6 24 7.1 ENE 7 9 4 5 1020.9 1019.1 0.0
20/03:30am 14.6 9.3 -6.8 22 8.0 E 13 15 7 8 1020.9 1019.1 0.0
20/03:00am 13.1 8.2 -7.5 23 7.4 E 11 13 6 7 1020.8 1019.0 0.0
20/02:30am 13.5 7.8 -7.8 22 7.6 ESE 15 17 8 9 1020.8 1019.0 0.0
20/02:00am 13.1 8.2 -7.5 23 7.4 E 11 13 6 7 1020.8 1019.0 0.0
20/01:30am 12.5 7.5 -8.6 22 7.3 ESE 11 13 6 7 1020.9 1019.1 0.0
20/01:00am 13.8 8.8 -8.1 21 7.8 E 11 13 6 7 1020.9 1019.1 0.0
20/12:30am 15.0 9.2 -8.4 19 8.4 E 15 15 8 8 1020.7 1018.9 0.0
20/12:00am 14.4 9.3 -8.9 19 8.2 E 11 15 6 8 1020.9 1019.1 0.0
 
Date/Time
WST
Temp
°C
App
Temp
°C
Dew
Point
°C
Rel
Hum
%
Delta-T
°C
Wind Press
QNH
hPa
Press
MSL
hPa
Rain since
9am
mm
Dir  Spd
km/h
Gust
km/h
Spd
kts
Gust
kts
19/11:30pm 14.4 9.3 -8.9 19 8.3 ESE 11 13 6 7 1020.9 1019.1 0.0
19/11:00pm 15.5 10.5 -8.7 18 8.7 E 11 13 6 7 1020.9 1019.1 0.0
19/10:30pm 16.0 10.6 -9.0 17 9.0 E 13 15 7 8 1020.9 1019.1 0.0
19/10:00pm 16.3 11.2 -8.8 17 9.1 E 11 11 6 6 1021.1 1019.2 0.0
19/09:30pm 17.1 11.3 -8.9 16 9.5 ESE 15 15 8 8 1020.9 1019.1 0.0
19/09:00pm 17.7 12.2 -9.2 15 9.8 ESE 13 15 7 8 1020.7 1018.9 0.0
19/08:30pm 19.5 14.0 -9.6 13 10.8 ESE 13 17 7 9 1020.6 1018.8 0.0
19/08:00pm 19.0 13.2 -9.1 14 10.4 E 15 17 8 9 1020.3 1018.5 0.0
19/07:30pm 20.8 14.5 -9.6 12 11.4 ESE 17 19 9 10 1019.9 1018.1 0.0
19/07:00pm 21.8 15.5 -9.9 11 12.0 ESE 17 20 9 11 1019.6 1017.8 0.0
19/06:30pm 22.7 16.0 -10.4 10 12.5 ESE 19 24 10 13 1019.3 1017.4 0.0
19/06:00pm 23.5 16.7 -11.2 9 13.0 ESE 19 28 10 15 1019.1 1017.2 0.0
19/05:30pm 24.5 17.7 -11.9 8 13.6 ESE 19 32 10 17 1018.7 1016.8 0.0
19/05:00pm 25.3 18.5 -11.3 8 14.0 E 19 28 10 15 1018.3 1016.5 0.0
19/04:30pm 25.7 18.4 -11.0 8 14.2 E 22 30 12 16 1018.0 1016.2 0.0
19/04:00pm 25.8 18.5 -10.9 8 14.2 E 22 32 12 17 1018.0 1016.2 0.0
19/03:30pm 26.0 17.5 -12.4 7 14.5 E 28 35 15 19 1018.1 1016.3 0.0
19/03:00pm 26.0 18.3 -10.8 8 14.3 ESE 24 35 13 19 1018.1 1016.3 0.0
19/02:30pm 26.6 19.3 -10.3 8 14.6 E 22 32 12 17 1018.1 1016.3 0.0
19/02:00pm 26.1 19.2 -10.7 8 14.3 ESE 20 33 11 18 1018.3 1016.5 0.0
19/01:30pm 25.3 17.7 -9.8 9 13.8 ESE 24 33 13 18 1018.7 1016.8 0.0
19/01:00pm 25.0 17.4 -10.0 9 13.6 E 24 33 13 18 1019.2 1017.3 0.0
19/12:30pm 24.8 18.0 -8.8 10 13.4 ENE 20 32 11 17 1019.8 1018.0 0.0
19/12:00pm 24.6 17.4 -9.0 10 13.3 NE 22 39 12 21 1020.0 1018.2 0.0
19/11:30am 23.6 17.1 -6.4 13 12.4 E 20 33 11 18 1020.6 1018.8 0.0
19/11:00am 23.5 15.1 -5.5 14 12.1 E 30 43 16 23 1020.9 1019.1 0.0
19/10:30am 22.6 14.6 -5.3 15 11.6 E 28 39 15 21 1021.5 1019.7 0.0
19/10:00am 21.1 14.0 -4.1 18 10.6 ENE 24 37 13 20 1021.9 1020.1 0.0
19/09:30am 19.6 13.4 -3.3 21 9.7 E 20 26 11 14 1022.3 1020.5 0.0
19/09:00am 18.6 12.5 -2.3 24 8.9 E 20 28 11 15 1022.4 1020.6 0.0
19/08:30am 17.7 11.8 -2.0 26 8.4 E 19 24 10 13 1022.5 1020.7 0.0
19/08:00am 15.0 10.7 -2.0 31 7.0 NE 11 11 6 6 1022.5 1020.7 0.0
19/07:30am 12.7 8.2 -3.1 33 6.2 NE 11 13 6 7 1022.4 1020.6 0.0
19/07:00am 11.3 7.2 -3.2 36 5.6 ENE 9 11 5 6 1022.0 1020.2 0.0
19/06:30am 10.8 7.1 -3.3 37 5.4 E 7 11 4 6 1021.6 1019.8 0.0
19/06:00am 11.5 7.9 -3.4 35 5.7 NNE 6 9 3 5 1021.5 1019.7 0.0
19/05:30am 11.9 8.4 -2.7 36 5.8 E 6 9 3 5 1021.4 1019.5 0.0
19/05:00am 11.2 7.6 -3.3 36 5.6 ESE 6 7 3 4 1021.3 1019.4 0.0
19/04:30am 11.6 8.3 -4.1 33 6.0 N 4 7 2 4 1021.4 1019.5 0.0
19/04:00am 12.1 8.3 -4.1 32 6.2 SE 7 11 4 6 1021.5 1019.7 0.0
19/03:30am 13.5 9.0 -3.3 31 6.7 SE 11 13 6 7 1021.4 1019.5 0.0
19/03:00am 13.6 9.4 -3.6 30 6.8 E 9 13 5 7 1021.5 1019.7 0.0
19/02:30am 14.5 10.0 -3.3 29 7.1 E 11 13 6 7 1021.4 1019.5 0.0
19/02:00am 15.7 10.8 -3.7 26 7.8 E 13 17 7 9 1021.4 1019.5 0.0
19/01:30am 17.3 11.7 -2.9 25 8.4 E 17 24 9 13 1021.4 1019.5 0.0
19/01:00am 16.8 12.3 -3.3 25 8.2 E 11 15 6 8 1021.4 1019.5 0.0
19/12:30am 17.9 11.9 -2.9 24 8.7 ESE 19 24 10 13 1021.3 1019.4 0.0
19/12:00am 18.3 12.1 -3.2 23 8.9 ESE 20 28 11 15 1021.7 1019.9 0.0
 
Date/Time
WST
Temp
°C
App
Temp
°C
Dew
Point
°C
Rel
Hum
%
Delta-T
°C
Wind Press
QNH
hPa
Press
MSL
hPa
Rain since
9am
mm
Dir  Spd
km/h
Gust
km/h
Spd
kts
Gust
kts
18/11:30pm 18.8 11.8 -3.3 22 9.2 ESE 24 33 13 18 1021.8 1020.0 0.0
18/11:00pm 18.5 12.2 -4.2 21 9.3 ESE 20 26 11 14 1021.8 1020.0 0.0
18/10:30pm 18.7 13.4 -4.0 21 9.4 ESE 15 20 8 11 1021.7 1019.9 0.0
18/10:00pm 19.4 13.3 -4.1 20 9.7 ESE 19 26 10 14 1021.7 1019.9 0.0
18/09:30pm 20.0 14.2 -4.3 19 10.1 ESE 17 30 9 16 1021.6 1019.8 0.0
18/09:00pm 20.6 14.2 -4.5 18 10.4 ESE 20 28 11 15 1021.5 1019.7 0.0
18/08:30pm 19.6 14.2 -4.6 19 9.9 ESE 15 19 8 10 1021.3 1019.4 0.0
18/08:00pm 20.7 15.2 -5.2 17 10.6 ESE 15 20 8 11 1021.1 1019.2 0.0
18/07:30pm 22.1 15.7 -4.9 16 11.3 ESE 20 26 11 14 1020.8 1019.0 0.0
18/07:00pm 22.7 16.3 -5.2 15 11.6 ESE 20 26 11 14 1020.4 1018.6 0.0
18/06:30pm 23.4 17.2 -4.7 15 11.9 SE 19 30 10 16 1020.1 1018.3 0.0
18/06:00pm 24.0 17.9 -4.2 15 12.1 SE 19 26 10 14 1019.7 1017.9 0.0
18/05:30pm 24.8 18.2 -6.5 12 13.0 ESE 20 28 11 15 1019.3 1017.4 0.0
18/05:00pm 25.7 19.2 -5.8 12 13.3 ESE 20 30 11 16 1019.0 1017.1 0.0
18/04:30pm 26.2 19.3 -6.5 11 13.8 E 22 32 12 17 1018.8 1016.9 0.0
18/04:00pm 26.8 20.2 -7.3 10 14.2 ESE 20 30 11 16 1018.8 1016.9 0.0
18/03:30pm 26.8 20.2 -7.3 10 14.2 E 20 30 11 16 1018.7 1016.8 0.0
18/03:00pm 26.6 19.9 -7.5 10 14.1 ESE 20 32 11 17 1018.8 1016.9 0.0
18/02:30pm 26.9 20.6 -6.0 11 14.1 ESE 19 30 10 16 1018.9 1017.0 0.0
18/02:00pm 26.5 20.0 -7.6 10 14.1 ESE 19 30 10 16 1019.1 1017.2 0.0
18/01:30pm 26.3 19.7 -6.5 11 13.8 E 20 33 11 18 1019.3 1017.4 0.0
18/01:00pm 26.3 20.2 -4.3 13 13.4 ESE 19 30 10 16 1019.6 1017.8 0.0
18/12:30pm 25.1 19.5 -3.3 15 12.6 ESE 17 30 9 16 1020.2 1018.4 0.0
18/12:00pm 24.8 18.5 -3.6 15 12.4 ENE 20 44 11 24 1020.7 1018.9 0.0
18/11:30am 24.1 17.6 -2.4 17 11.8 ENE 22 30 12 16 1021.2 1019.3 0.0
18/11:00am 23.3 16.0 -3.1 17 11.5 ENE 26 39 14 21 1021.7 1019.9 0.0
18/10:30am 22.5 14.4 -3.0 18 11.1 ENE 30 41 16 22 1022.1 1020.3 0.0
18/10:00am 21.9 14.0 -1.4 21 10.4 ENE 30 43 16 23 1022.4 1020.6 0.0
18/09:30am 21.3 13.6 -0.1 24 9.8 E 30 43 16 23 1022.7 1020.9 0.0
18/09:00am 19.7 12.0 -0.3 26 8.9 E 30 39 16 21 1022.9 1021.1 0.0
18/08:30am 18.9 13.1 0.0 28 8.5 E 20 28 11 15 1022.9 1021.1 0.0
18/08:00am 17.3 12.7 -0.9 29 7.9 ENE 13 17 7 9 1023.0 1021.2 0.0
18/07:30am 14.7 9.9 -2.2 31 7.0 NE 13 15 7 8 1022.9 1021.1 0.0
18/07:00am 12.9 9.2 -2.6 34 6.2 NE 7 9 4 5 1022.8 1021.0 0.0
18/06:30am 12.7 9.2 -3.1 33 6.2 NE 6 7 3 4 1022.5 1020.7 0.0
18/06:00am 14.3 10.7 -2.1 32 6.7 ENE 7 9 4 5 1022.2 1020.4 0.0
18/05:30am 14.8 11.3 -2.6 30 7.1 NE 6 13 3 7 1022.1 1020.3 0.0
18/05:00am 16.4 11.7 -2.1 28 7.7 ENE 13 24 7 13 1021.9 1020.1 0.0
18/04:30am 16.8 11.7 -2.3 27 8.0 ENE 15 28 8 15 1022.0 1020.2 0.0
18/04:00am 17.1 11.9 -2.5 26 8.2 ENE 15 26 8 14 1022.4 1020.6 0.0
18/03:30am 18.5 12.1 -1.9 25 8.8 E 22 37 12 20 1022.2 1020.4 0.0
18/03:00am 18.4 11.6 -2.0 25 8.7 E 24 39 13 21 1022.2 1020.4 0.0
18/02:32am 18.9 11.4 -1.5 25 8.9 E 28 46 15 25 1022.2 1020.4 0.0
18/02:30am 18.9 11.8 -1.5 25 8.9 E 26 46 14 25 1022.2 1020.4 0.0
18/02:00am 18.5 11.3 -1.9 25 8.7 E 26 39 14 21 1022.4 1020.6 0.0
18/01:30am 18.4 11.9 -2.5 24 8.9 E 22 35 12 19 1022.6 1020.8 0.0
18/01:00am 18.3 12.1 -3.2 23 8.9 E 20 28 11 15 1022.7 1020.9 0.0
18/12:30am 18.3 12.1 -3.2 23 9.0 ESE 20 26 11 14 1022.8 1021.0 0.0
18/12:00am 18.4 12.3 -4.3 21 9.2 E 19 24 10 13 1022.9 1021.1 0.0
 
Date/Time
WST
Temp
°C
App
Temp
°C
Dew
Point
°C
Rel
Hum
%
Delta-T
°C
Wind Press
QNH
hPa
Press
MSL
hPa
Rain since
9am
mm
Dir  Spd
km/h
Gust
km/h
Spd
kts
Gust
kts
17/11:30pm 18.7 12.3 -4.7 20 9.5 E 20 28 11 15 1023.0 1021.2 0.0
17/11:00pm 18.7 12.9 -4.7 20 9.5 ESE 17 28 9 15 1022.9 1021.1 0.0
17/10:30pm 18.9 13.4 -5.2 19 9.7 ESE 15 20 8 11 1022.8 1021.0 0.0
17/10:00pm 19.5 14.1 -4.7 19 9.9 ESE 15 20 8 11 1022.6 1020.8 0.0

Other Formats:

Comma delimited format used in spreadsheet applications
http://www.bom.gov.au/fwo/IDW60801/IDW60801.94316.axf

JavaScript Object Notation format (JSON) in row-major order
http://www.bom.gov.au/fwo/IDW60801/IDW60801.94316.json